Time;durP1;ratioP1;P1;durP2;ratioP2;P2;SDS_P1;SDS_P2;PMS_P1;PMS_P2;Temp;Humidity;BMP_temperature;BMP_pressure;BME280_temperature;BME280_humidity;BME280_pressure;Samples;Min_cycle;Max_cycle;Signal;HPM_P1;HPM_P2
2023/01/19 00:03:57;;;;;;;237.77;94.20;;;0.50;99.90;;;;;;10402600;28;20131;-84
2023/01/19 00:08:58;;;;;;;230.23;95.00;;;0.60;99.90;;;;;;10384504;28;20103;-84
2023/01/19 00:13:59;;;;;;;226.83;87.57;;;0.50;99.90;;;;;;10403245;28;20044;-84
2023/01/19 00:18:59;;;;;;;223.40;87.80;;;0.50;99.90;;;;;;10384345;28;20032;-84
2023/01/19 00:24:00;;;;;;;203.20;82.13;;;0.50;99.90;;;;;;10404797;28;20049;-84
2023/01/19 00:29:00;;;;;;;249.03;102.60;;;0.60;99.90;;;;;;10401327;28;20044;-85
2023/01/19 00:34:02;;;;;;;232.93;101.37;;;0.60;99.90;;;;;;10417600;28;20033;-85
2023/01/19 00:39:03;;;;;;;277.00;118.10;;;0.60;99.90;;;;;;10403508;28;20387;-84
2023/01/19 00:44:03;;;;;;;240.73;106.30;;;0.60;99.90;;;;;;10403724;28;20031;-86
2023/01/19 00:49:05;;;;;;;269.27;104.53;;;0.60;99.90;;;;;;10435323;28;20040;-85
2023/01/19 00:54:09;;;;;;;207.63;86.20;;;0.60;99.90;;;;;;10410016;28;20405;-86
2023/01/19 00:59:09;;;;;;;241.37;98.07;;;0.50;99.90;;;;;;10408591;28;20033;-84
2023/01/19 01:04:12;;;;;;;240.23;94.77;;;0.50;99.90;;;;;;10391175;28;20029;-84
2023/01/19 01:09:13;;;;;;;244.87;97.60;;;0.50;99.90;;;;;;10385627;28;20115;-85
2023/01/19 01:14:13;;;;;;;233.83;96.83;;;0.50;99.90;;;;;;10377876;28;20108;-85
2023/01/19 01:19:15;;;;;;;220.77;90.90;;;0.50;99.90;;;;;;10379699;28;20046;-83
2023/01/19 01:24:17;;;;;;;205.87;82.90;;;0.50;99.90;;;;;;10367728;28;20473;-84
2023/01/19 01:29:18;;;;;;;180.30;73.50;;;0.50;99.90;;;;;;10382395;28;20073;-86
2023/01/19 01:34:18;;;;;;;167.80;73.90;;;0.50;99.90;;;;;;10383896;28;20854;-84
2023/01/19 01:39:21;;;;;;;184.30;76.43;;;0.60;99.90;;;;;;10368755;28;20477;-84
2023/01/19 01:44:48;;;;;;;183.73;76.07;;;0.60;99.90;;;;;;10366052;28;20029;-84
2023/01/19 01:49:55;;;;;;;213.03;83.23;;;0.60;99.90;;;;;;10383885;28;20427;-85
2023/01/19 01:54:57;;;;;;;192.47;74.53;;;0.60;99.90;;;;;;10367778;28;20117;-85
2023/01/19 01:59:58;;;;;;;154.40;68.30;;;0.50;99.90;;;;;;10377003;28;20045;-85
2023/01/19 02:05:03;;;;;;;157.60;68.23;;;0.50;99.90;;;;;;10365508;28;20050;-85
2023/01/19 02:15:23;;;;;;;171.37;71.13;;;0.50;99.90;;;;;;10407932;28;20077;-85
2023/01/19 02:20:27;;;;;;;193.77;77.23;;;0.50;99.90;;;;;;10417098;28;20112;-85
2023/01/19 02:25:28;;;;;;;199.93;82.70;;;0.50;99.90;;;;;;10382583;28;20037;-86
2023/01/19 02:30:29;;;;;;;179.93;77.53;;;0.50;99.90;;;;;;10388231;28;20455;-85
2023/01/19 02:35:31;;;;;;;165.47;72.80;;;0.50;99.90;;;;;;10397750;28;20032;-85
2023/01/19 02:40:32;;;;;;;173.47;77.10;;;0.40;99.90;;;;;;10413332;28;20022;-85
2023/01/19 02:45:34;;;;;;;175.43;71.80;;;0.50;99.90;;;;;;10412377;28;20045;-86
2023/01/19 02:50:44;;;;;;;161.20;68.93;;;0.50;99.90;;;;;;10406811;28;20048;-85
2023/01/19 02:55:54;;;;;;;177.37;74.30;;;0.50;99.90;;;;;;10412052;28;20532;-84
2023/01/19 03:01:25;;;;;;;160.20;65.47;;;0.50;99.90;;;;;;10407127;28;20041;-86
2023/01/19 03:06:39;;;;;;;159.37;68.23;;;0.60;99.90;;;;;;10400268;28;20037;-85
2023/01/19 03:11:45;;;;;;;163.97;68.00;;;0.50;99.90;;;;;;10409538;28;20508;-85
2023/01/19 03:16:53;;;;;;;149.15;63.88;;;0.50;99.90;;;;;;10401279;28;20401;-86
2023/01/19 03:21:58;;;;;;;151.57;63.50;;;0.60;99.90;;;;;;10403155;28;20033;-86
2023/01/19 03:27:04;;;;;;;151.67;62.80;;;0.50;99.90;;;;;;10396011;28;20042;-89
2023/01/19 03:32:11;;;;;;;166.67;68.70;;;0.50;99.90;;;;;;10392323;28;20032;-86
2023/01/19 03:37:14;;;;;;;153.73;63.50;;;0.50;99.90;;;;;;10374966;28;20052;-86
2023/01/19 03:42:16;;;;;;;145.67;65.73;;;0.50;99.90;;;;;;10388194;28;20039;-85
2023/01/19 03:47:19;;;;;;;154.90;68.10;;;0.50;99.90;;;;;;10415301;28;20128;-86
2023/01/19 03:52:32;;;;;;;150.33;68.33;;;0.60;99.90;;;;;;10402021;28;20040;-86
2023/01/19 03:57:32;;;;;;;169.97;69.63;;;0.60;99.90;;;;;;10404830;28;20041;-86
2023/01/19 04:02:33;;;;;;;173.90;76.50;;;0.60;99.90;;;;;;10387421;28;20056;-87
2023/01/19 04:07:34;;;;;;;187.83;76.87;;;0.50;99.90;;;;;;10383060;28;20037;-86
2023/01/19 04:12:34;;;;;;;177.67;76.37;;;0.50;99.90;;;;;;10369179;28;20405;-88
2023/01/19 04:17:35;;;;;;;203.03;85.77;;;0.50;99.90;;;;;;10371090;28;20026;-87
2023/01/19 04:22:37;;;;;;;222.10;100.07;;;0.50;99.90;;;;;;10376461;28;20157;-86
2023/01/19 04:27:38;;;;;;;176.20;78.83;;;0.50;99.90;;;;;;10375066;28;20042;-85
2023/01/19 04:32:38;;;;;;;221.67;96.37;;;0.60;99.90;;;;;;10392675;28;20029;-87
2023/01/19 04:37:39;;;;;;;224.43;102.20;;;0.50;99.90;;;;;;10365142;28;20032;-87
2023/01/19 04:42:45;;;;;;;187.53;82.07;;;0.50;99.90;;;;;;10361679;28;20022;-85
2023/01/19 04:47:46;;;;;;;184.00;83.70;;;0.50;99.90;;;;;;10377176;28;20057;-84
2023/01/19 04:52:47;;;;;;;190.03;85.30;;;0.50;99.90;;;;;;10359907;28;20053;-88
2023/01/19 04:57:48;;;;;;;200.20;86.83;;;0.50;99.90;;;;;;10373725;28;20053;-88
2023/01/19 05:02:49;;;;;;;225.97;100.33;;;0.50;99.90;;;;;;10377040;28;20472;-86
2023/01/19 05:07:49;;;;;;;309.77;115.53;;;0.60;99.90;;;;;;10367761;28;20038;-85
2023/01/19 05:12:50;;;;;;;261.93;97.20;;;0.60;99.90;;;;;;10395537;28;20050;-84
2023/01/19 05:17:51;;;;;;;178.13;74.53;;;0.60;99.90;;;;;;10382303;28;20175;-87
2023/01/19 05:22:52;;;;;;;168.80;72.97;;;0.60;99.90;;;;;;10381013;28;20523;-87
2023/01/19 05:27:53;;;;;;;149.03;63.80;;;0.60;99.90;;;;;;10433606;28;20041;-86
2023/01/19 05:32:53;;;;;;;147.00;60.10;;;0.60;99.90;;;;;;10398842;28;20698;-88
2023/01/19 05:37:54;;;;;;;154.60;62.73;;;0.70;99.90;;;;;;10409081;28;20036;-87
2023/01/19 05:42:59;;;;;;;160.63;70.40;;;0.70;99.90;;;;;;10441392;28;20561;-85
2023/01/19 05:48:00;;;;;;;165.73;75.70;;;0.70;99.90;;;;;;10420521;28;20041;-88
2023/01/19 05:53:01;;;;;;;151.13;70.73;;;0.60;99.90;;;;;;10407006;28;20686;-86
2023/01/19 05:58:02;;;;;;;192.80;86.43;;;0.50;99.90;;;;;;10408106;28;20049;-86
2023/01/19 06:03:02;;;;;;;183.93;80.87;;;0.50;99.90;;;;;;10409160;28;20041;-85
2023/01/19 06:08:03;;;;;;;194.47;83.83;;;0.50;99.90;;;;;;10410428;28;20121;-86
2023/01/19 06:13:04;;;;;;;202.47;89.30;;;0.50;99.90;;;;;;10409132;28;20045;-87
2023/01/19 06:18:05;;;;;;;183.57;76.53;;;0.50;99.90;;;;;;10406116;28;20491;-85
2023/01/19 06:23:05;;;;;;;178.47;74.40;;;0.60;99.90;;;;;;10387605;28;20036;-87
2023/01/19 06:28:06;;;;;;;171.97;72.23;;;0.70;99.90;;;;;;10415628;28;20102;-88
2023/01/19 06:33:06;;;;;;;186.07;78.30;;;0.70;99.90;;;;;;10424007;28;20087;-87
2023/01/19 06:38:07;;;;;;;199.17;80.60;;;0.70;99.90;;;;;;10406074;28;20072;-87
2023/01/19 06:43:08;;;;;;;196.33;85.07;;;0.70;99.90;;;;;;10387589;28;20164;-86
2023/01/19 06:48:09;;;;;;;147.57;60.70;;;0.70;99.90;;;;;;10392702;28;20044;-85
2023/01/19 06:53:09;;;;;;;148.10;61.07;;;0.80;99.90;;;;;;10404938;28;20743;-84
2023/01/19 06:58:11;;;;;;;184.47;79.13;;;1.00;99.90;;;;;;10409135;28;20480;-84
2023/01/19 07:03:18;;;;;;;147.97;63.73;;;1.00;99.90;;;;;;10417696;28;20030;-87
2023/01/19 07:08:19;;;;;;;148.13;62.93;;;1.00;99.90;;;;;;10406917;28;20050;-84
2023/01/19 07:13:20;;;;;;;153.40;64.20;;;1.20;99.90;;;;;;10408555;28;20445;-83
2023/01/19 07:18:21;;;;;;;157.47;61.30;;;1.30;99.90;;;;;;10389280;28;20039;-81
2023/01/19 07:23:21;;;;;;;150.77;66.60;;;1.30;99.90;;;;;;10392487;28;20540;-82
2023/01/19 07:28:22;;;;;;;158.80;68.70;;;1.30;99.90;;;;;;10385610;28;20052;-81
2023/01/19 07:33:24;;;;;;;165.30;66.50;;;1.30;99.90;;;;;;10384679;28;20095;-83
2023/01/19 07:38:25;;;;;;;176.73;72.13;;;1.30;99.90;;;;;;10403051;28;20067;-83
2023/01/19 07:43:25;;;;;;;168.90;66.80;;;1.30;99.90;;;;;;10410098;28;20036;-84
2023/01/19 07:48:27;;;;;;;173.43;70.20;;;1.30;99.90;;;;;;10414868;28;20504;-82
2023/01/19 07:53:27;;;;;;;169.17;68.77;;;1.20;99.90;;;;;;10402617;28;20113;-84
2023/01/19 07:58:28;;;;;;;177.60;72.77;;;1.30;99.90;;;;;;10404924;28;20396;-82
2023/01/19 08:03:28;;;;;;;175.23;74.67;;;1.30;99.90;;;;;;10417750;28;20037;-84
2023/01/19 08:08:30;;;;;;;162.90;68.93;;;1.20;99.90;;;;;;10414496;28;20534;-86
2023/01/19 08:13:31;;;;;;;175.13;68.47;;;1.20;99.90;;;;;;10386412;28;20028;-83
2023/01/19 08:18:32;;;;;;;175.30;72.13;;;1.20;99.90;;;;;;10386459;28;20052;-84
2023/01/19 08:23:33;;;;;;;184.90;75.07;;;1.30;99.90;;;;;;10404533;28;20041;-84
2023/01/19 08:28:33;;;;;;;180.17;72.70;;;1.20;99.90;;;;;;10404956;28;20037;-84
2023/01/19 08:33:35;;;;;;;172.13;69.90;;;1.20;99.90;;;;;;10411155;28;20033;-84
2023/01/19 08:38:38;;;;;;;181.37;75.13;;;1.30;99.90;;;;;;10391669;28;20075;-84
2023/01/19 08:43:38;;;;;;;180.97;73.33;;;1.30;99.90;;;;;;10404099;28;20119;-84
2023/01/19 08:48:39;;;;;;;194.93;82.07;;;1.20;99.90;;;;;;10403369;28;20037;-84
2023/01/19 08:53:41;;;;;;;196.93;83.37;;;1.30;99.90;;;;;;10403809;28;20033;-83
2023/01/19 08:58:44;;;;;;;210.60;81.77;;;1.30;99.90;;;;;;10406147;28;20032;-83
2023/01/19 09:03:45;;;;;;;209.47;84.23;;;1.30;99.90;;;;;;10408018;28;20041;-84
2023/01/19 09:08:46;;;;;;;233.63;95.00;;;1.40;99.90;;;;;;10409956;28;20037;-84
2023/01/19 09:13:46;;;;;;;183.30;78.07;;;1.50;99.90;;;;;;10408780;28;20052;-85
2023/01/19 09:18:47;;;;;;;181.07;69.13;;;1.50;99.90;;;;;;10398276;28;20439;-84
2023/01/19 09:23:48;;;;;;;185.17;68.93;;;1.50;99.90;;;;;;10393664;28;20033;-84
2023/01/19 09:28:48;;;;;;;186.97;69.30;;;1.50;99.90;;;;;;10410426;28;20103;-85
2023/01/19 09:33:49;;;;;;;178.60;67.13;;;1.40;99.90;;;;;;10406513;28;20033;-83
2023/01/19 09:38:50;;;;;;;163.77;60.10;;;1.40;99.90;;;;;;10416187;28;20139;-84
2023/01/19 09:43:56;;;;;;;166.17;60.33;;;1.40;99.90;;;;;;10412484;28;20526;-83
2023/01/19 09:48:58;;;;;;;;;;;1.30;99.90;;;;;;10409770;28;20038;-83
2023/01/19 09:54:08;;;;;;;153.83;52.23;;;1.30;99.90;;;;;;10408619;28;20020;-85
2023/01/19 09:59:24;;;;;;;152.03;49.83;;;1.20;99.90;;;;;;10408457;28;20041;-85
2023/01/19 10:04:40;;;;;;;151.13;48.70;;;1.10;99.90;;;;;;10410848;28;20045;-83
2023/01/19 10:09:54;;;;;;;150.20;53.03;;;1.10;99.90;;;;;;10424636;28;20494;-85
2023/01/19 10:15:24;;;;;;;156.57;49.73;;;1.10;99.90;;;;;;10406179;28;20022;-81
2023/01/19 10:20:32;;;;;;;138.00;46.73;;;1.10;99.90;;;;;;10405007;28;20087;-83
2023/01/19 10:25:32;;;;;;;138.97;46.17;;;1.10;99.90;;;;;;10406149;28;20129;-85
2023/01/19 10:30:34;;;;;;;130.87;44.77;;;1.10;99.90;;;;;;10410301;28;20029;-84
2023/01/19 10:35:35;;;;;;;130.00;44.03;;;1.20;99.90;;;;;;10411672;28;20029;-87
2023/01/19 10:40:46;;;;;;;119.67;41.13;;;1.10;99.90;;;;;;10405687;28;20029;-86
2023/01/19 10:45:49;;;;;;;131.13;42.03;;;1.20;99.90;;;;;;10387669;28;20033;-87
2023/01/19 10:51:01;;;;;;;123.03;41.10;;;1.10;99.90;;;;;;10404147;28;20025;-86
2023/01/19 10:56:26;;;;;;;114.83;38.73;;;1.20;99.90;;;;;;10405124;28;20029;-86
2023/01/19 11:01:29;;;;;;;110.67;36.37;;;1.20;99.90;;;;;;10410207;28;20033;-88
2023/01/19 11:06:31;;;;;;;102.87;33.73;;;1.20;99.90;;;;;;10411811;28;20040;-85
2023/01/19 11:11:51;;;;;;;122.83;36.17;;;1.30;99.90;;;;;;10394588;28;20114;-86
2023/01/19 11:16:56;;;;;;;109.60;35.13;;;1.20;99.90;;;;;;10406025;28;20029;-86
2023/01/19 11:22:21;;;;;;;71.70;27.50;;;1.20;99.90;;;;;;10403339;28;20024;-82
2023/01/19 11:27:21;;;;;;;99.40;32.93;;;1.20;99.90;;;;;;10385873;28;20037;-85
2023/01/19 11:32:26;;;;;;;102.80;32.20;;;1.20;99.90;;;;;;10415845;28;20427;-84
2023/01/19 11:37:30;;;;;;;97.50;32.63;;;1.20;99.90;;;;;;10414826;28;20465;-83
2023/01/19 11:42:32;;;;;;;95.60;33.57;;;1.20;99.90;;;;;;10403540;28;20116;-84
2023/01/19 11:47:41;;;;;;;95.33;33.73;;;1.20;99.90;;;;;;10409209;28;20445;-86
2023/01/19 11:52:47;;;;;;;101.77;33.10;;;1.20;99.90;;;;;;10411664;28;20040;-88
2023/01/19 11:57:50;;;;;;;98.05;34.33;;;1.20;99.90;;;;;;10389231;28;20037;-84
2023/01/19 12:02:59;;;;;;;109.63;34.13;;;1.10;99.90;;;;;;10402518;28;20037;-86
2023/01/19 12:08:05;;;;;;;114.80;34.00;;;1.10;99.90;;;;;;10383540;28;20044;-85
2023/01/19 12:13:10;;;;;;;100.00;32.30;;;1.10;99.90;;;;;;10393346;28;20056;-87
2023/01/19 12:18:28;;;;;;;98.68;33.13;;;1.00;99.90;;;;;;10400772;28;20025;-84
2023/01/19 12:23:43;;;;;;;108.67;35.57;;;1.00;99.90;;;;;;10415290;28;20026;-86
2023/01/19 12:28:49;;;;;;;98.73;33.37;;;1.00;99.90;;;;;;10401123;28;20044;-84
2023/01/19 12:33:50;;;;;;;96.13;33.03;;;1.00;99.90;;;;;;10383286;28;20030;-83
2023/01/19 12:38:55;;;;;;;112.23;33.47;;;1.10;99.90;;;;;;10404999;28;20043;-83
2023/01/19 12:44:10;;;;;;;99.77;32.33;;;1.10;99.90;;;;;;10393347;28;20033;-83
2023/01/19 12:49:19;;;;;;;69.90;23.38;;;1.00;99.90;;;;;;10398194;28;20045;-83
2023/01/19 12:54:30;;;;;;;88.03;30.80;;;1.10;99.90;;;;;;10403220;28;20754;-86
2023/01/19 12:59:34;;;;;;;98.83;32.33;;;1.00;99.90;;;;;;10403026;28;20052;-85
2023/01/19 13:04:34;;;;;;;91.00;30.30;;;1.00;99.90;;;;;;10403989;28;20068;-84
2023/01/19 13:09:37;;;;;;;88.77;30.53;;;1.00;99.90;;;;;;10407120;28;20456;-83
2023/01/19 13:14:39;;;;;;;96.93;29.27;;;1.00;99.90;;;;;;10403959;28;20033;-86
2023/01/19 13:19:48;;;;;;;87.60;32.10;;;1.00;99.90;;;;;;10401031;28;20034;-83
2023/01/19 13:25:11;;;;;;;89.60;28.73;;;1.00;99.90;;;;;;10401171;28;20033;-83
2023/01/19 13:30:16;;;;;;;90.97;29.13;;;1.00;99.90;;;;;;10388219;28;20037;-83
2023/01/19 13:35:19;;;;;;;92.80;31.57;;;1.00;99.90;;;;;;10384778;28;20076;-83
2023/01/19 13:40:28;;;;;;;86.20;29.43;;;1.00;99.90;;;;;;10405205;28;20283;-83
2023/01/19 13:45:32;;;;;;;74.03;25.47;;;1.00;99.90;;;;;;10401009;28;20665;-84
2023/01/19 13:50:36;;;;;;;82.83;27.97;;;0.90;99.90;;;;;;10405133;28;20079;-83
2023/01/19 13:55:36;;;;;;;90.40;28.60;;;0.90;99.90;;;;;;10393978;28;20029;-86
2023/01/19 14:00:37;;;;;;;87.67;29.20;;;0.90;99.90;;;;;;10414548;28;20037;-83
2023/01/19 14:05:40;;;;;;;81.70;27.60;;;0.90;99.90;;;;;;10407427;28;20046;-85
2023/01/19 14:11:06;;;;;;;75.57;28.33;;;1.00;99.90;;;;;;10408700;28;20064;-85
2023/01/19 14:16:14;;;;;;;98.70;31.93;;;0.90;99.90;;;;;;10413268;28;20045;-85
2023/01/19 14:21:17;;;;;;;94.17;29.80;;;1.00;99.90;;;;;;10405295;28;20037;-85
2023/01/19 14:26:36;;;;;;;89.67;28.47;;;0.90;99.90;;;;;;10405586;28;20033;-84
2023/01/19 14:31:52;;;;;;;94.63;30.67;;;0.80;99.90;;;;;;10412960;28;20040;-85
2023/01/19 14:36:53;;;;;;;86.20;28.20;;;0.80;99.90;;;;;;10406113;28;20070;-85
2023/01/19 14:41:56;;;;;;;85.67;28.87;;;0.80;99.90;;;;;;10416887;28;20052;-87
2023/01/19 14:46:58;;;;;;;86.03;28.40;;;0.80;99.90;;;;;;10405631;28;20488;-86
2023/01/19 14:52:03;;;;;;;84.93;28.70;;;0.80;99.90;;;;;;10405552;28;20035;-87
2023/01/19 14:57:09;;;;;;;75.67;27.33;;;0.80;99.90;;;;;;10382980;28;20040;-87
2023/01/19 15:02:10;;;;;;;89.23;28.80;;;0.80;99.90;;;;;;10409995;28;20746;-86
2023/01/19 15:07:17;;;;;;;75.97;26.93;;;0.70;99.90;;;;;;10386259;28;20083;-86
2023/01/19 15:12:19;;;;;;;77.07;26.43;;;0.80;99.90;;;;;;10410173;28;20572;-87
2023/01/19 15:17:24;;;;;;;71.37;24.30;;;0.80;99.90;;;;;;10386867;28;20116;-85
2023/01/19 15:22:27;;;;;;;81.23;27.90;;;0.80;99.90;;;;;;10415285;28;20060;-88
2023/01/19 15:27:27;;;;;;;79.33;27.43;;;0.70;99.90;;;;;;10400159;28;20194;-86
2023/01/19 15:32:28;;;;;;;77.63;25.73;;;0.80;99.90;;;;;;10384899;28;20164;-86
2023/01/19 15:37:28;;;;;;;80.13;28.03;;;0.80;99.90;;;;;;10403870;28;20021;-85
2023/01/19 15:42:29;;;;;;;92.03;31.07;;;0.80;99.90;;;;;;10408203;28;20029;-85
2023/01/19 15:47:29;;;;;;;79.70;28.10;;;0.80;99.90;;;;;;10415026;28;20048;-86
2023/01/19 15:52:30;;;;;;;75.97;26.50;;;0.80;99.90;;;;;;10412587;28;20033;-86
2023/01/19 15:57:32;;;;;;;73.87;27.93;;;0.80;99.90;;;;;;10405640;28;20458;-86
2023/01/19 16:02:33;;;;;;;85.80;29.73;;;0.80;99.90;;;;;;10413021;28;20535;-86
2023/01/19 16:07:33;;;;;;;75.23;27.83;;;0.80;99.90;;;;;;10402187;28;20121;-85
2023/01/19 16:12:34;;;;;;;76.20;26.93;;;0.80;99.90;;;;;;10384730;28;20540;-86
2023/01/19 16:17:35;;;;;;;78.47;27.13;;;0.80;99.90;;;;;;10368029;28;20382;-85
2023/01/19 16:22:37;;;;;;;84.47;33.00;;;0.90;99.90;;;;;;10370479;28;20029;-86
2023/01/19 16:27:37;;;;;;;88.30;30.83;;;0.80;99.90;;;;;;10363786;28;20045;-86
2023/01/19 16:32:38;;;;;;;95.23;31.97;;;0.90;99.90;;;;;;10363991;28;20038;-86
2023/01/19 16:37:39;;;;;;;84.23;29.90;;;0.80;99.90;;;;;;10383869;28;20036;-86
2023/01/19 16:42:40;;;;;;;88.13;29.77;;;0.90;99.90;;;;;;10366243;28;20040;-86
2023/01/19 16:47:41;;;;;;;91.33;30.67;;;0.90;99.90;;;;;;10348550;28;20045;-85
2023/01/19 16:53:02;;;;;;;91.93;31.23;;;0.80;99.90;;;;;;10359258;28;20495;-89
2023/01/19 16:58:03;;;;;;;92.37;31.83;;;0.80;99.90;;;;;;10348600;28;20042;-88
2023/01/19 17:03:04;;;;;;;95.87;32.97;;;0.80;99.90;;;;;;10359729;28;20026;-88
2023/01/19 17:08:04;;;;;;;99.90;33.53;;;0.80;99.90;;;;;;10374540;28;20081;-85
2023/01/19 17:13:05;;;;;;;108.87;34.67;;;0.80;99.90;;;;;;10397048;28;20439;-85
2023/01/19 17:18:05;;;;;;;110.43;33.13;;;0.80;99.90;;;;;;10384899;28;20476;-85
2023/01/19 17:23:06;;;;;;;114.73;35.17;;;0.90;99.90;;;;;;10372361;28;20026;-85
2023/01/19 17:28:07;;;;;;;98.30;30.60;;;0.90;99.90;;;;;;10408053;28;20049;-86
2023/01/19 17:33:08;;;;;;;102.87;33.30;;;0.90;99.90;;;;;;10419735;28;20033;-84
2023/01/19 17:38:09;;;;;;;99.73;33.30;;;0.90;99.90;;;;;;10408318;28;20362;-86
2023/01/19 17:43:10;;;;;;;102.53;32.63;;;0.90;99.90;;;;;;10408843;28;20045;-86
2023/01/19 17:48:12;;;;;;;107.40;33.80;;;0.90;99.90;;;;;;10415950;28;20037;-86
2023/01/19 17:53:12;;;;;;;104.20;35.83;;;0.90;99.90;;;;;;10414947;28;20032;-86
2023/01/19 17:58:13;;;;;;;96.63;32.40;;;0.80;99.90;;;;;;10433221;28;20754;-86
2023/01/19 18:03:13;;;;;;;110.27;36.03;;;0.80;99.90;;;;;;10416754;28;20488;-85
2023/01/19 18:08:14;;;;;;;99.27;32.47;;;0.80;99.90;;;;;;10416236;28;20034;-86
2023/01/19 18:13:14;;;;;;;93.83;30.77;;;0.80;99.90;;;;;;10410711;28;20049;-86
2023/01/19 18:18:16;;;;;;;115.93;34.90;;;0.80;99.90;;;;;;10405021;28;20025;-86
2023/01/19 18:23:17;;;;;;;112.13;34.63;;;0.70;99.90;;;;;;10403843;28;20053;-85
2023/01/19 18:28:17;;;;;;;110.50;35.60;;;0.80;99.90;;;;;;10405352;28;21122;-85
2023/01/19 18:33:18;;;;;;;105.63;34.90;;;0.80;99.90;;;;;;10405142;28;20294;-84
2023/01/19 18:38:18;;;;;;;97.90;32.50;;;0.80;99.90;;;;;;10405287;28;20641;-85
2023/01/19 18:43:19;;;;;;;101.80;33.07;;;0.70;99.90;;;;;;10403933;28;20041;-86
2023/01/19 18:48:19;;;;;;;98.70;31.30;;;0.80;99.90;;;;;;10402899;28;20048;-84
2023/01/19 18:53:20;;;;;;;104.70;32.50;;;0.70;99.90;;;;;;10403337;28;20527;-83
2023/01/19 18:58:22;;;;;;;101.07;33.27;;;0.70;99.90;;;;;;10403299;28;20025;-86
2023/01/19 19:03:23;;;;;;;109.60;36.80;;;0.70;99.90;;;;;;10391153;28;20376;-87
2023/01/19 19:08:24;;;;;;;117.10;37.27;;;0.70;99.90;;;;;;10405741;28;20106;-86
2023/01/19 19:13:24;;;;;;;112.63;35.67;;;0.70;99.90;;;;;;10406284;28;20106;-85
2023/01/19 19:18:25;;;;;;;107.07;34.77;;;0.70;99.90;;;;;;10410981;28;20041;-85
2023/01/19 19:23:25;;;;;;;110.87;35.57;;;0.70;99.90;;;;;;10403161;28;20036;-85
2023/01/19 19:28:26;;;;;;;113.97;37.57;;;0.70;99.90;;;;;;10409209;28;20041;-86
2023/01/19 19:33:27;;;;;;;106.77;34.40;;;0.70;99.90;;;;;;10405992;28;20052;-87
2023/01/19 19:38:28;;;;;;;112.17;37.40;;;0.70;99.90;;;;;;10402862;28;20681;-86
2023/01/19 19:43:31;;;;;;;103.40;31.30;;;0.70;99.90;;;;;;10385892;28;20461;-84
2023/01/19 19:48:33;;;;;;;113.00;37.53;;;0.70;99.90;;;;;;10407614;28;20639;-86
2023/01/19 19:53:36;;;;;;;108.77;32.33;;;0.70;99.90;;;;;;10403512;28;20037;-87
2023/01/19 19:58:38;;;;;;;103.20;34.53;;;0.70;99.90;;;;;;10411469;28;20074;-86
2023/01/19 20:03:39;;;;;;;106.67;33.23;;;0.70;99.90;;;;;;10382774;28;20040;-87
2023/01/19 20:08:40;;;;;;;111.33;38.27;;;0.70;99.90;;;;;;10400774;28;20052;-89
2023/01/19 20:13:42;;;;;;;99.87;32.17;;;0.70;99.90;;;;;;10388199;28;20033;-86
2023/01/19 20:18:47;;;;;;;98.03;31.07;;;0.70;99.90;;;;;;10401860;28;20681;-87
2023/01/19 20:23:49;;;;;;;90.60;27.37;;;0.70;99.90;;;;;;10386190;28;20782;-88
2023/01/19 20:28:50;;;;;;;88.97;27.87;;;0.70;99.90;;;;;;10397624;28;20714;-86
2023/01/19 20:33:54;;;;;;;87.60;28.63;;;0.70;99.90;;;;;;10406508;28;20068;-86
2023/01/19 20:38:56;;;;;;;104.20;33.20;;;0.70;99.90;;;;;;10399452;28;20079;-87
2023/01/19 20:43:56;;;;;;;123.63;41.40;;;0.70;99.90;;;;;;10400886;28;20038;-87
2023/01/19 20:48:57;;;;;;;158.43;48.30;;;0.70;99.90;;;;;;10400172;28;20048;-86
2023/01/19 20:53:58;;;;;;;121.47;39.83;;;0.70;99.90;;;;;;10400470;28;20025;-87
2023/01/19 20:58:59;;;;;;;165.53;52.03;;;0.70;99.90;;;;;;10399159;28;20082;-87
2023/01/19 21:03:59;;;;;;;133.00;39.93;;;0.70;99.90;;;;;;10408336;28;20033;-87
2023/01/19 21:09:00;;;;;;;116.23;33.23;;;0.80;99.90;;;;;;10397632;28;20140;-86
2023/01/19 21:14:01;;;;;;;120.63;37.17;;;0.80;99.90;;;;;;10408469;28;20554;-87
2023/01/19 21:19:02;;;;;;;72.53;22.73;;;0.80;99.90;;;;;;10407281;28;20029;-87
2023/01/19 21:24:03;;;;;;;43.27;15.47;;;0.80;99.90;;;;;;10407583;28;20064;-87
2023/01/19 21:29:04;;;;;;;0.40;0.40;;;0.80;99.90;;;;;;10390123;28;20064;-87
2023/01/19 21:34:04;;;;;;;0.67;0.60;;;0.70;99.90;;;;;;10389456;28;20076;-87
2023/01/19 21:39:06;;;;;;;2.17;2.07;;;0.70;99.90;;;;;;10390233;28;20059;-87
2023/01/19 21:44:08;;;;;;;0.30;0.30;;;0.80;99.90;;;;;;10389610;28;20033;-88
2023/01/19 21:49:17;;;;;;;1.70;1.60;;;0.70;99.90;;;;;;10401134;28;20041;-87
2023/01/19 21:54:17;;;;;;;0.73;0.60;;;0.70;99.90;;;;;;10396652;28;20496;-88
2023/01/19 21:59:18;;;;;;;0.20;0.20;;;0.70;99.90;;;;;;10407050;28;20041;-86
2023/01/19 22:04:19;;;;;;;0.00;0.00;;;0.70;99.90;;;;;;10406212;28;20056;-87
2023/01/19 22:09:19;;;;;;;5.00;1.57;;;0.70;99.90;;;;;;10410688;28;20049;-87
2023/01/19 22:14:20;;;;;;;0.00;0.00;;;0.70;99.90;;;;;;10407035;28;20357;-87
2023/01/19 22:19:21;;;;;;;1.10;1.10;;;0.80;99.90;;;;;;10415596;28;20025;-87
2023/01/19 22:24:22;;;;;;;0.77;0.77;;;0.80;99.90;;;;;;10405552;28;20373;-86
2023/01/19 22:29:22;;;;;;;1.60;0.87;;;0.80;99.90;;;;;;10428147;28;20041;-87
2023/01/19 22:34:23;;;;;;;0.00;0.00;;;0.80;99.90;;;;;;10391476;28;20579;-87
2023/01/19 22:39:23;;;;;;;0.87;0.87;;;0.80;99.90;;;;;;10398578;28;20035;-86
2023/01/19 22:44:24;;;;;;;11.43;1.20;;;0.80;99.90;;;;;;10405747;28;20083;-86
2023/01/19 22:49:25;;;;;;;0.77;0.77;;;0.80;99.90;;;;;;10426956;28;20041;-86
2023/01/19 22:54:25;;;;;;;0.23;0.23;;;0.80;99.90;;;;;;10405038;28;20040;-87
2023/01/19 22:59:26;;;;;;;0.00;0.00;;;0.80;99.90;;;;;;10389887;28;20029;-88
2023/01/19 23:04:26;;;;;;;2.20;2.10;;;0.80;99.90;;;;;;10407290;28;20029;-87
2023/01/19 23:09:27;;;;;;;2.67;1.23;;;0.80;99.90;;;;;;10401276;28;20057;-88
2023/01/19 23:14:28;;;;;;;0.37;0.37;;;0.80;99.90;;;;;;10394563;28;20048;-87
2023/01/19 23:19:28;;;;;;;0.50;0.40;;;0.80;99.90;;;;;;10410147;28;20398;-86
2023/01/19 23:24:29;;;;;;;0.57;0.57;;;0.80;99.90;;;;;;10408086;28;20025;-87
2023/01/19 23:29:29;;;;;;;5.90;0.97;;;0.70;99.90;;;;;;10392294;28;20033;-87
2023/01/19 23:34:30;;;;;;;0.17;0.17;;;0.80;99.90;;;;;;10414389;28;20095;-87
2023/01/19 23:39:31;;;;;;;0.00;0.00;;;0.70;99.90;;;;;;10403091;28;20030;-88
2023/01/19 23:44:31;;;;;;;0.00;0.00;;;0.70;99.90;;;;;;10411708;28;20032;-86
2023/01/19 23:49:32;;;;;;;0.93;0.73;;;0.70;99.90;;;;;;10386014;28;20075;-88
2023/01/19 23:54:32;;;;;;;0.00;0.00;;;0.60;99.90;;;;;;10402218;28;20037;-87
2023/01/19 23:59:33;;;;;;;0.00;0.00;;;0.60;99.90;;;;;;10396200;28;20072;-87
